MRSH weather

Shiroles Airport
Talamanca, Limon, Costa Rica

Public forecast

Using degrees Celsius for public forecast. Weather courtesy of forecast.io.

Closest aviation weather report (METAR) to Shiroles Airport

Closest report is Limon International Airport, 22.9 nm (42.5 km) N. Retrieved 2020/05/26 19:00 UTC (52 minutes ago):

MRLM 261900Z 08006KT CAVOK 31/26 A2977

Closest aviation forecast (TAF) to Shiroles Airport

Closest forecast is Limon International Airport, 22.9 nm (42.5 km) N. Retrieved 2020/05/26 18:09 UTC (2 hours ago):

TAF MRLM 261706Z 2618/2718 26004KT 9999 FEW030 SCT130 TX31/2719Z TN24/2711Z BECMG 2700/2703 25005KT TEMPO 2704/2712 RA BKN020 BECMG 2714/2716 04005KT